Aérodrome :
LOGIN :

S'inscrire | Disclaimer

   EN    FR    IT 

 










Légende :    VFR   VFR Marginal   IFR   IFR Intensif   IFR Très Intensif
Visi : 
Plafond : 
>= 8 km
>= 3000ft
5 à 8 km
1000 à 3000 ft
1500m à 5 km
500 à 1000 ft
800 à 1500m
200 à 500 ft
< 800m
< 200 ft
Symboles :   Orages  Brouillard  Fortes neiges  Fortes précipitations  Vent > 20 kt
SIGMETs :   Divers  Orages  Givrage  Turbulence  Onde Orograph.  Cendres Volcan.






- Altitude de l'aérodrome : 36 ft
- Code IATA : LTQ


LFAT - Le Touquet

DERNIER METAR :
  • 271200Z AUTO 35016KT 330V030 9999 OVC008 04/02 Q0995 BECMG 33020G35KT BKN020

METARs EXPIRÉS :
  • 271130Z AUTO 35015KT 340V050 9999 -RA BKN008 OVC013 03/03 Q0994
  • 271100Z AUTO 02008KT 350V090 9999 -RADZ BKN009 OVC026 03/02 Q0992 BECMG 33020G35KT BKN017
  • 271030Z AUTO 11011KT 9999 SCT009/// SCT020/// BKN030/// ///TCU 03/02 Q0991 BECMG 33020G35KT BKN017
  • 271000Z AUTO 11010KT 9999 -RA BKN007/// OVC021/// ///CB 02/01 Q0991 TEMPO RA BECMG 33020G35KT BKN017
  • 270930Z AUTO 12010KT 8000 -RA OVC006/// ///TCU 01/01 Q0991 TEMPO RA BECMG 33020G35KT BKN017

TAF TAF LFAT
Valide du 27 à 12h jusqu'au 27 à 21h UTC


271100Z 2712/2721 35015KT 9999 BKN013
BECMG 2712/2714 33020G35KT BKN020
BECMG 2717/2720 30012KT
ATIS : +33 3 21 06 62 84



MET'MAP, la Météo Aéronautique d'un coup d'oeil ! - Copyright ORBIFLY Décembre 2007 - Disclaimer

ORBIFLY MET'MAP TEAM :

Programmation & Développement : Alexandra Zaïnal
Sur une idée originale de : Baudouin d'Aumeries
Assistance à la programmation : Marc-Olivier Méhu
Soutien technique & logistique : Manuel Goepfert

Contact : metmap@orbifly.com




SOURCES & CREDITS :

   NOAA